createdAt,value
2022-10-06T00:35:29.311Z,14.17
2022-10-06T02:35:29.273Z,13.56
2022-10-06T03:15:29.262Z,13.5
2022-10-06T03:35:29.290Z,13.43
2022-10-06T03:55:29.271Z,13.24
2022-10-06T04:15:29.286Z,12.97
2022-10-06T04:35:29.253Z,12.81
2022-10-06T04:55:29.243Z,12.59
2022-10-06T05:35:29.228Z,12.22
2022-10-06T05:55:29.226Z,12.09
2022-10-06T06:15:29.229Z,12.04
2022-10-06T06:35:29.226Z,12.09
2022-10-06T06:55:29.214Z,12.2
2022-10-06T07:15:29.226Z,12.45
2022-10-06T07:35:29.246Z,12.82
2022-10-06T08:35:29.194Z,15.23
2022-10-06T09:15:29.178Z,16.15
2022-10-06T10:15:29.180Z,15.93
2022-10-06T10:35:29.169Z,16.13
2022-10-06T10:55:29.189Z,16.2
2022-10-06T11:15:29.136Z,16.27
2022-10-06T11:35:29.124Z,16.53
2022-10-06T11:55:29.156Z,16.72
2022-10-06T12:17:05.446Z,16.99
2022-10-06T12:35:29.151Z,17.01
2022-10-06T13:15:29.180Z,17.37
2022-10-06T13:35:29.089Z,17.38
2022-10-06T13:55:29.075Z,17.43
2022-10-06T14:15:29.145Z,17.47
2022-10-06T14:35:29.065Z,17.76
2022-10-06T14:55:29.063Z,17.32
2022-10-06T15:15:29.072Z,17.21
2022-10-06T15:35:29.044Z,17.08
2022-10-06T15:55:29.038Z,16.92
2022-10-06T16:15:29.020Z,16.58
2022-10-06T16:35:29.011Z,16.17
2022-10-06T16:55:29.002Z,15.72
2022-10-06T17:15:32.718Z,15.34
2022-10-06T17:35:29.020Z,14.6
2022-10-06T17:55:28.986Z,13.69
2022-10-06T18:15:28.989Z,13.15
2022-10-06T18:55:28.976Z,12.55
2022-10-06T19:15:28.974Z,12.19
2022-10-06T19:35:28.974Z,11.98
2022-10-06T19:55:28.967Z,11.52
2022-10-06T20:15:28.959Z,11.03
2022-10-06T20:35:28.990Z,10.96
2022-10-06T21:15:29.032Z,10.45
2022-10-06T21:35:28.946Z,10.22
2022-10-06T21:55:28.945Z,10.17
2022-10-06T22:15:28.953Z,10.06
2022-10-06T22:35:28.945Z,9.99
2022-10-06T22:55:28.934Z,9.88
2022-10-06T23:15:28.936Z,9.82
2022-10-06T23:35:28.937Z,9.77
2022-10-06T23:55:28.950Z,9.68
